Terminal Aerodrome Forecast
Issued by NWS

Home | Current Version | Previous Version | Text Only | Print | Product List | Glossary On
Versions: 1 2 3 4 5 6 7 8 9 10 11 12 13 14 15 16 17 18 19 20 21 22 23 24 25
719
FTUS41 KPBZ 140617 AAA
TAFFKL
TAF AMD
KFKL 140617Z 1406/1506 29006KT P6SM BKN035
      TEMPO 1406/1410 5SM -SN BKN015
     FM142200 24005KT P6SM SCT035
     FM150200 15005KT P6SM BKN080
      AMD LTD TO CLD VIS AND WIND=

USA.gov is the U.S. government's official web portal to all federal, state and local government web resources and services.